createdAt,value
2019-02-27T00:01:42.173Z,36.9
2019-02-27T00:06:47.623Z,36
2019-02-27T00:11:47.058Z,36.4
2019-02-27T00:16:49.611Z,36.1
2019-02-27T00:21:52.014Z,36
2019-02-27T00:26:54.405Z,32.4
2019-02-27T00:31:56.865Z,38.3
2019-02-27T00:36:59.344Z,38
2019-02-27T00:42:01.815Z,40.2
2019-02-27T00:47:04.263Z,66.6
2019-02-27T00:52:06.735Z,75.6
2019-02-27T00:57:09.189Z,69.3
2019-02-27T01:02:11.750Z,74.4
2019-02-27T01:07:14.101Z,69.7
2019-02-27T01:12:16.584Z,66.3
2019-02-27T01:17:20.881Z,63.4
2019-02-27T01:22:21.496Z,62.8
2019-02-27T01:27:23.957Z,70.1
2019-02-27T01:32:28.819Z,76.3
2019-02-27T01:37:31.631Z,96.8
2019-02-27T01:42:32.735Z,97.6
2019-02-27T01:47:35.937Z,99.9
2019-02-27T01:52:36.237Z,99.9
2019-02-27T01:57:38.689Z,99.9
2019-02-27T02:02:41.278Z,99.9
2019-02-27T02:07:43.623Z,99.9
2019-02-27T02:12:46.063Z,99.9
2019-02-27T02:17:48.583Z,99.9
2019-02-27T02:22:50.996Z,99.9
2019-02-27T02:27:53.464Z,99.9
2019-02-27T02:32:55.873Z,99.9
2019-02-27T02:37:58.323Z,99.9
2019-02-27T02:43:03.063Z,99.9
2019-02-27T02:48:03.244Z,99.9
2019-02-27T02:53:05.744Z,99.9
2019-02-27T02:58:11.242Z,99.9
2019-02-27T03:03:10.664Z,99.9
2019-02-27T03:08:13.155Z,99.9
2019-02-27T03:13:15.516Z,99.9
2019-02-27T03:18:18.001Z,99.9
2019-02-27T03:23:20.433Z,99.9
2019-02-27T03:28:22.934Z,99.9
2019-02-27T03:33:27.156Z,99.9
2019-02-27T03:38:27.814Z,99.9
2019-02-27T03:43:30.369Z,99.9
2019-02-27T03:48:32.735Z,99.9
2019-02-27T03:53:35.187Z,99.9
2019-02-27T03:58:37.628Z,99.9
2019-02-27T04:03:40.147Z,99.9
2019-02-27T04:08:44.683Z,99.9
2019-02-27T04:13:45.014Z,99.9
2019-02-27T04:18:47.513Z,99.9
2019-02-27T04:23:50.066Z,99.9
2019-02-27T04:28:52.385Z,99.9
2019-02-27T04:33:59.513Z,99.9
2019-02-27T04:38:57.323Z,99.9
2019-02-27T04:43:59.775Z,99.9
2019-02-27T04:49:04.805Z,99.9
2019-02-27T04:54:07.171Z,99.9
2019-02-27T04:59:07.132Z,99.9
2019-02-27T05:04:09.606Z,99.9
2019-02-27T05:09:12.780Z,99.9
2019-02-27T05:19:17.035Z,99.9
2019-02-27T05:24:19.393Z,99.9
2019-02-27T05:29:21.913Z,99.9
2019-02-27T05:34:24.376Z,99.9
2019-02-27T05:39:26.795Z,99.9
2019-02-27T05:44:29.263Z,99.9
2019-02-27T05:49:31.713Z,99.9
2019-02-27T05:54:34.211Z,99.9
2019-02-27T05:59:41.610Z,99.9
2019-02-27T06:04:39.104Z,99.9
2019-02-27T06:09:43.726Z,99.9
2019-02-27T06:14:43.991Z,99.9
2019-02-27T06:19:46.499Z,99.9
2019-02-27T06:24:48.873Z,99.9
2019-02-27T06:29:51.339Z,99.9
2019-02-27T06:34:53.821Z,99.9
2019-02-27T06:39:56.283Z,99.9
2019-02-27T06:45:03.814Z,99.9
2019-02-27T06:50:01.258Z,99.9
2019-02-27T06:55:03.648Z,99.9
2019-02-27T07:00:06.099Z,99.9
2019-02-27T07:10:11.053Z,99.9
2019-02-27T07:15:13.529Z,99.9
2019-02-27T07:20:15.913Z,99.9
2019-02-27T07:25:18.385Z,99.9
2019-02-27T07:30:20.851Z,99.9
2019-02-27T07:35:26.290Z,99.9
2019-02-27T07:40:25.745Z,99.9
2019-02-27T07:45:28.276Z,99.9
2019-02-27T07:50:32.491Z,99.9
2019-02-27T07:55:33.191Z,99.9
2019-02-27T08:00:42.657Z,99.9
2019-02-27T08:05:38.116Z,98.1
2019-02-27T08:10:40.502Z,1
2019-02-27T08:15:42.998Z,1
2019-02-27T08:20:45.442Z,1
2019-02-27T08:25:47.906Z,1
2019-02-27T08:30:50.364Z,1
2019-02-27T08:35:52.868Z,1
2019-02-27T08:40:58.195Z,1
2019-02-27T08:51:02.940Z,1
2019-02-27T08:56:02.710Z,1
2019-02-27T09:01:05.108Z,1
2019-02-27T09:06:07.594Z,1
2019-02-27T09:11:10.093Z,1
2019-02-27T09:16:12.506Z,1
2019-02-27T09:21:14.976Z,1
2019-02-27T09:26:17.432Z,1
2019-02-27T09:31:19.870Z,1
2019-02-27T09:36:22.320Z,1
2019-02-27T09:41:24.833Z,1
2019-02-27T09:46:27.244Z,1
2019-02-27T09:51:29.698Z,1
2019-02-27T09:56:32.770Z,1
2019-02-27T10:01:35.286Z,1
2019-02-27T10:06:37.361Z,1
2019-02-27T10:11:39.611Z,1
2019-02-27T10:16:42.025Z,1
2019-02-27T10:21:45.248Z,1
2019-02-27T10:26:46.933Z,1
2019-02-27T10:31:49.391Z,1
2019-02-27T10:36:51.973Z,1
2019-02-27T10:41:54.440Z,1
2019-02-27T10:46:59.792Z,1
2019-02-27T10:51:59.238Z,1
2019-02-27T10:57:01.785Z,1
2019-02-27T11:02:04.225Z,1
2019-02-27T11:07:06.734Z,1
2019-02-27T11:12:09.075Z,1
2019-02-27T11:17:11.524Z,1
2019-02-27T11:22:13.996Z,1
2019-02-27T11:27:16.888Z,1
2019-02-27T11:32:22.864Z,1
2019-02-27T11:37:21.429Z,1
2019-02-27T11:42:23.829Z,1
2019-02-27T11:47:26.288Z,1
2019-02-27T11:52:28.931Z,1
2019-02-27T11:57:31.341Z,1
2019-02-27T12:02:36.966Z,1
2019-02-27T12:07:36.206Z,1
2019-02-27T12:12:38.609Z,1
2019-02-27T12:17:41.353Z,1
2019-02-27T12:22:43.542Z,1
2019-02-27T12:27:49.725Z,1
2019-02-27T12:32:48.476Z,1
2019-02-27T12:37:50.969Z,1
2019-02-27T12:42:53.358Z,1
2019-02-27T12:47:55.801Z,1
2019-02-27T12:52:58.294Z,1
2019-02-27T12:58:00.801Z,1
2019-02-27T13:03:03.211Z,1
2019-02-27T13:08:05.673Z,1
2019-02-27T13:13:08.147Z,1
2019-02-27T13:18:10.663Z,1
2019-02-27T13:23:13.049Z,1
2019-02-27T13:28:15.655Z,1
2019-02-27T13:33:22.975Z,1
2019-02-27T13:38:20.488Z,1
2019-02-27T13:43:24.312Z,1
2019-02-27T13:48:25.565Z,1
2019-02-27T13:53:27.852Z,1
2019-02-27T13:58:30.247Z,1
2019-02-27T14:03:32.782Z,1
2019-02-27T14:08:35.215Z,1
2019-02-27T14:13:37.649Z,1
2019-02-27T14:18:40.099Z,1
2019-02-27T14:23:42.603Z,1
2019-02-27T14:28:45.074Z,1
2019-02-27T14:33:47.499Z,1
2019-02-27T14:38:50.379Z,1
2019-02-27T14:43:52.408Z,1
2019-02-27T14:48:54.842Z,1
2019-02-27T14:53:57.288Z,1
2019-02-27T14:58:59.767Z,1
2019-02-27T15:04:02.322Z,1
2019-02-27T15:09:06.256Z,1
2019-02-27T15:14:07.114Z,1
2019-02-27T15:19:09.656Z,1
2019-02-27T15:24:12.167Z,1
2019-02-27T15:29:14.502Z,1
2019-02-27T15:34:16.951Z,1
2019-02-27T15:39:21.015Z,1
2019-02-27T15:44:21.869Z,1
2019-02-27T15:49:24.337Z,1
2019-02-27T15:54:26.810Z,1
2019-02-27T15:59:29.290Z,1
2019-02-27T16:04:31.728Z,1
2019-02-27T16:09:34.180Z,1
2019-02-27T16:14:36.695Z,1
2019-02-27T16:19:39.093Z,1
2019-02-27T16:24:43.731Z,1
2019-02-27T16:29:43.994Z,1
2019-02-27T16:34:46.449Z,1
2019-02-27T16:39:48.976Z,1
2019-02-27T16:44:54.344Z,1
2019-02-27T16:49:54.288Z,1
2019-02-27T16:55:00.718Z,1
2019-02-27T16:59:58.756Z,1
2019-02-27T17:05:08.765Z,1
2019-02-27T17:10:03.704Z,1
2019-02-27T17:15:06.120Z,1
2019-02-27T17:20:12.445Z,1
2019-02-27T17:25:11.035Z,1
2019-02-27T17:30:13.511Z,1
2019-02-27T17:35:15.978Z,1
2019-02-27T17:40:18.434Z,1
2019-02-27T17:45:20.888Z,1
2019-02-27T17:50:23.307Z,1
2019-02-27T17:55:25.764Z,1
2019-02-27T18:00:28.537Z,1
2019-02-27T18:05:30.689Z,1
2019-02-27T18:10:37.067Z,1
2019-02-27T18:15:35.599Z,1
2019-02-27T18:20:38.071Z,1
2019-02-27T18:25:41.958Z,1
2019-02-27T18:30:42.959Z,1
2019-02-27T18:35:45.421Z,1
2019-02-27T18:40:47.973Z,1
2019-02-27T18:45:50.763Z,1
2019-02-27T18:50:52.792Z,1
2019-02-27T18:55:55.313Z,1
2019-02-27T19:00:57.709Z,1
2019-02-27T19:06:00.190Z,1
2019-02-27T19:11:02.627Z,1
2019-02-27T19:16:05.117Z,1
2019-02-27T19:21:07.603Z,1
2019-02-27T19:26:10.071Z,1
2019-02-27T19:36:19.068Z,1
2019-02-27T19:41:17.456Z,1
2019-02-27T19:46:19.830Z,1
2019-02-27T19:51:22.285Z,2.1
2019-02-27T19:56:24.772Z,2.6
2019-02-27T20:01:27.231Z,1
2019-02-27T20:06:29.700Z,1
2019-02-27T20:11:32.337Z,2.7
2019-02-27T20:16:34.644Z,12.9
2019-02-27T20:21:37.053Z,21.4
2019-02-27T20:26:44.387Z,22.6
2019-02-27T20:31:41.997Z,32.3
2019-02-27T20:36:44.449Z,28
2019-02-27T20:41:46.906Z,26.7
2019-02-27T20:46:50.172Z,25.2
2019-02-27T20:51:51.882Z,19.3
2019-02-27T20:56:55.619Z,22.3
2019-02-27T21:01:56.771Z,24
2019-02-27T21:06:59.216Z,21.3
2019-02-27T21:12:04.249Z,19.3
2019-02-27T21:17:04.171Z,20.3
2019-02-27T21:22:06.755Z,23
2019-02-27T21:27:09.086Z,20.2
2019-02-27T21:32:11.529Z,17.2
2019-02-27T21:37:16.137Z,14.8
2019-02-27T21:42:19.292Z,18.1
2019-02-27T21:47:18.981Z,15.7
2019-02-27T21:52:22.375Z,16.5
2019-02-27T21:57:25.464Z,28.1
2019-02-27T22:02:27.155Z,33.8
2019-02-27T22:07:32.799Z,42.1
2019-02-27T22:12:32.357Z,41.6
2019-02-27T22:17:36.605Z,43.7
2019-02-27T22:22:41.071Z,40.7
2019-02-27T22:27:38.710Z,40.9
2019-02-27T22:32:41.125Z,40.1
2019-02-27T22:37:43.560Z,52.7
2019-02-27T22:42:48.384Z,51.8
2019-02-27T22:47:48.603Z,58.6
2019-02-27T22:52:54.035Z,53.9
2019-02-27T22:57:54.717Z,57.3
2019-02-27T23:02:55.911Z,62
2019-02-27T23:07:58.368Z,77.8
2019-02-27T23:13:00.819Z,75.5
2019-02-27T23:18:05.749Z,76.5
2019-02-27T23:23:05.795Z,72.6
2019-02-27T23:28:08.252Z,65.8
2019-02-27T23:33:10.685Z,54.5
2019-02-27T23:38:13.210Z,43.2
2019-02-27T23:43:15.638Z,43.1
2019-02-27T23:48:18.138Z,40.7
2019-02-27T23:53:20.529Z,41.6
2019-02-27T23:58:23.026Z,48.7
